Map

Track Data

SID SEASON NUMBER BASIN SUBBASIN NAME ISO_TIME NATURE LAT LON WMO_WIND WMO_PRES WMO_AGENCY TRACK_TYPE DIST2LAND LANDFALL IFLAG USA_AGENCY USA_ATCF_ID USA_LAT USA_LON USA_RECORD USA_STATUS USA_WIND USA_PRES USA_SSHS USA_R34_NE USA_R34_SE USA_R34_SW USA_R34_NW USA_R50_NE USA_R50_SE USA_R50_SW USA_R50_NW USA_R64_NE USA_R64_SE USA_R64_SW USA_R64_NW USA_POCI USA_ROCI USA_RMW USA_EYE TOKYO_LAT TOKYO_LON TOKYO_GRADE TOKYO_WIND TOKYO_PRES TOKYO_R50_DIR TOKYO_R50_LONG TOKYO_R50_SHORT TOKYO_R30_DIR TOKYO_R30_LONG TOKYO_R30_SHORT TOKYO_LAND CMA_LAT CMA_LON CMA_CAT CMA_WIND CMA_PRES HKO_LAT HKO_LON HKO_CAT HKO_WIND HKO_PRES NEWDELHI_LAT NEWDELHI_LON NEWDELHI_GRADE NEWDELHI_WIND NEWDELHI_PRES NEWDELHI_CI NEWDELHI_DP NEWDELHI_POCI REUNION_LAT REUNION_LON REUNION_TYPE REUNION_WIND REUNION_PRES REUNION_TNUM REUNION_CI REUNION_RMW REUNION_R34_NE REUNION_R34_SE REUNION_R34_SW REUNION_R34_NW REUNION_R50_NE REUNION_R50_SE REUNION_R50_SW REUNION_R50_NW REUNION_R64_NE REUNION_R64_SE REUNION_R64_SW REUNION_R64_NW BOM_LAT BOM_LON BOM_TYPE BOM_WIND BOM_PRES BOM_TNUM BOM_CI BOM_RMW BOM_R34_NE BOM_R34_SE BOM_R34_SW BOM_R34_NW BOM_R50_NE BOM_R50_SE BOM_R50_SW BOM_R50_NW BOM_R64_NE BOM_R64_SE BOM_R64_SW BOM_R64_NW BOM_ROCI BOM_POCI BOM_EYE BOM_POS_METHOD BOM_PRES_METHOD NADI_LAT NADI_LON NADI_CAT NADI_WIND NADI_PRES WELLINGTON_LAT WELLINGTON_LON WELLINGTON_WIND WELLINGTON_PRES DS824_LAT DS824_LON DS824_STAGE DS824_WIND DS824_PRES TD9636_LAT TD9636_LON TD9636_STAGE TD9636_WIND TD9636_PRES TD9635_LAT TD9635_LON TD9635_WIND TD9635_PRES TD9635_ROCI NEUMANN_LAT NEUMANN_LON NEUMANN_CLASS NEUMANN_WIND NEUMANN_PRES MLC_LAT MLC_LON MLC_CLASS MLC_WIND MLC_PRES USA_GUST BOM_GUST BOM_GUST_PER REUNION_GUST REUNION_GUST_PER USA_SEAHGT USA_SEARAD_NE USA_SEARAD_SE USA_SEARAD_SW USA_SEARAD_NW STORM_SPEED STORM_DIR
1970294N34312 1970 139 NA NA NOT_NAMED 1970-10-20 12:00:00 ET 34.0000 -48.0000 35 1013 hurdat_atl main 1468 1457 O_____________ hurdat_atl AL191970 34.0000 -48.0000 EX 35 1013 -4 3 25
1970294N34312 1970 139 NA NA NOT_NAMED 1970-10-20 15:00:00 ET 34.1475 -47.9150 main 1460 1441 P_____________ AL191970 34.1475 -47.9150 EX 37 -4 3 29
1970294N34312 1970 139 NA NA NOT_NAMED 1970-10-20 18:00:00 ET 34.3000 -47.8000 40 hurdat_atl main 1441 1430 O_____________ hurdat_atl AL191970 34.3000 -47.8000 EX 40 -4 4 37
1970294N34312 1970 139 NA NA NOT_NAMED 1970-10-20 21:00:00 ET 34.4574 -47.6300 main 1425 1417 P_____________ AL191970 34.4574 -47.6300 EX 40 -4 4 48
1970294N34312 1970 139 NA NA NOT_NAMED 1970-10-21 00:00:00 ET 34.6000 -47.4000 40 hurdat_atl main 1420 1412 O_____________ hurdat_atl AL191970 34.6000 -47.4000 EX 40 -4 5 58
1970294N34312 1970 139 NA NA NOT_NAMED 1970-10-21 03:00:00 ET 34.7149 -47.1300 main 1418 1411 P_____________ AL191970 34.7149 -47.1300 EX 42 -4 5 68
1970294N34312 1970 139 NA NA NOT_NAMED 1970-10-21 06:00:00 ET 34.8000 -46.8000 45 hurdat_atl main 1417 1417 O_____________ hurdat_atl AL191970 34.8000 -46.8000 EX 45 -4 6 77
1970294N34312 1970 139 NA NA NOT_NAMED 1970-10-21 09:00:00 ET 34.8577 -46.3924 main 1420 1420 P_____________ AL191970 34.8577 -46.3924 EX 45 -4 7 81
1970294N34312 1970 139 NA NA NOT_NAMED 1970-10-21 12:00:00 ET 34.9000 -46.0000 45 hurdat_atl main 1433 1433 O_____________ hurdat_atl AL191970 34.9000 -46.0000 EX 45 -4 6 82
1970294N34312 1970 139 NA NA NOT_NAMED 1970-10-21 15:00:00 ET 34.9348 -45.7273 main 1444 1437 P_____________ AL191970 34.9348 -45.7273 EX 47 -4 4 76
1970294N34312 1970 139 NA NA NOT_NAMED 1970-10-21 18:00:00 ET 35.0000 -45.5000 50 hurdat_atl main 1441 1435 O_____________ hurdat_atl AL191970 35.0000 -45.5000 EX 50 -4 4 65
1970294N34312 1970 139 NA NA NOT_NAMED 1970-10-21 21:00:00 ET 35.1199 -45.2499 main 1442 1426 P_____________ AL191970 35.1199 -45.2499 EX 50 -4 5 54
1970294N34312 1970 139 NA NA NOT_NAMED 1970-10-22 00:00:00 ET 35.3000 -45.0000 50 hurdat_atl main 1430 1418 O_____________ hurdat_atl AL191970 35.3000 -45.0000 EX 50 -4 6 45
1970294N34312 1970 139 NA NA NOT_NAMED 1970-10-22 03:00:00 ET 35.5350 -44.7426 main 1422 1401 P_____________ AL191970 35.5350 -44.7426 EX 50 -4 6 39
1970294N34312 1970 139 NA NA NOT_NAMED 1970-10-22 06:00:00 ET 35.8000 -44.5000 50 hurdat_atl main 1401 1380 O_____________ hurdat_atl AL191970 35.8000 -44.5000 EX 50 -4 7 34
1970294N34312 1970 139 NA NA NOT_NAMED 1970-10-22 09:00:00 ET 36.0799 -44.2925 main 1380 1366 P_____________ AL191970 36.0799 -44.2925 EX 50 -4 6 33
1970294N34312 1970 139 NA NA NOT_NAMED 1970-10-22 12:00:00 ET 36.3000 -44.1000 50 hurdat_atl main 1370 1365 O_____________ hurdat_atl AL191970 36.3000 -44.1000 EX 50 -4 4 45
1970294N34312 1970 139 NA NA NOT_NAMED 1970-10-22 15:00:00 ET 36.3874 -43.9073 main 1370 1370 P_____________ AL191970 36.3874 -43.9073 EX 50 -4 3 73
1970294N34312 1970 139 NA NA NOT_NAMED 1970-10-22 18:00:00 ET 36.4000 -43.7000 50 hurdat_atl main 1379 1379 O_____________ hurdat_atl AL191970 36.4000 -43.7000 EX 50 -4 4 85
1970294N34312 1970 139 NA NA NOT_NAMED 1970-10-22 21:00:00 ET 36.4225 -43.4501 main 1388 1388 P_____________ AL191970 36.4225 -43.4501 EX 50 -4 4 90
1970294N34312 1970 139 NA NA NOT_NAMED 1970-10-23 00:00:00 SS 36.4000 -43.2000 50 997 hurdat_atl main 1403 1403 O_____________ hurdat_atl AL191970 36.4000 -43.2000 SS 50 997 -2 4 111
1970294N34312 1970 139 NA NA NOT_NAMED 1970-10-23 03:00:00 SS 36.2849 -42.9997 main 1422 1422 P_____________ AL191970 36.2849 -42.9997 SS 52 996 -2 4 122
1970294N34312 1970 139 NA NA NOT_NAMED 1970-10-23 06:00:00 SS 36.2000 -42.8000 55 995 hurdat_atl main 1441 1441 O_____________ hurdat_atl AL191970 36.2000 -42.8000 SS 55 995 -2 4 95
1970294N34312 1970 139 NA NA NOT_NAMED 1970-10-23 09:00:00 SS 36.2551 -42.5352 main 1447 1443 P_____________ AL191970 36.2551 -42.5352 SS 55 -2 4 64
1970294N34312 1970 139 NA NA NOT_NAMED 1970-10-23 12:00:00 SS 36.4000 -42.3000 55 hurdat_atl main 1448 1435 O_____________ hurdat_atl AL191970 36.4000 -42.3000 SS 55 -2 4 39
1970294N34312 1970 139 NA NA NOT_NAMED 1970-10-23 15:00:00 SS 36.5999 -42.1849 main 1435 1422 P_____________ AL191970 36.5999 -42.1849 SS 55 -2 4 21
1970294N34312 1970 139 NA NA NOT_NAMED 1970-10-23 18:00:00 SS 36.8000 -42.1000 55 hurdat_atl main 1422 1413 O_____________ hurdat_atl AL191970 36.8000 -42.1000 SS 55 -2 4 29
1970294N34312 1970 139 NA NA NOT_NAMED 1970-10-23 21:00:00 SS 36.9525 -41.9426 main 1415 1415 P_____________ AL191970 36.9525 -41.9426 SS 52 -2 3 50
1970294N34312 1970 139 NA NA NOT_NAMED 1970-10-24 00:00:00 SS 37.0000 -41.8000 50 hurdat_atl main 1420 1420 O_____________ hurdat_atl AL191970 37.0000 -41.8000 SS 50 -2 2 107
1970294N34312 1970 139 NA NA NOT_NAMED 1970-10-24 03:00:00 SS 36.9025 -41.7425 main 1435 1435 P_____________ AL191970 36.9025 -41.7425 SS 50 -2 3 166
1970294N34312 1970 139 NA NA NOT_NAMED 1970-10-24 06:00:00 SS 36.7000 -41.7000 50 hurdat_atl main 1452 1452 O_____________ hurdat_atl AL191970 36.7000 -41.7000 SS 50 -2 4 166
1970294N34312 1970 139 NA NA NOT_NAMED 1970-10-24 09:00:00 SS 36.4725 -41.6075 main 1475 1475 P_____________ AL191970 36.4725 -41.6075 SS 50 -2 5 162
1970294N34312 1970 139 NA NA NOT_NAMED 1970-10-24 12:00:00 SS 36.2000 -41.5000 50 hurdat_atl main 1508 1508 O_____________ hurdat_atl AL191970 36.2000 -41.5000 SS 50 -2 6 164
1970294N34312 1970 139 NA NA NOT_NAMED 1970-10-24 15:00:00 SS 35.9075 -41.4076 main 1540 1540 P_____________ AL191970 35.9075 -41.4076 SS 52 -2 6 165
1970294N34312 1970 139 NA NA NOT_NAMED 1970-10-24 18:00:00 SS 35.6000 -41.3000 55 hurdat_atl main 1572 1572 O_____________ hurdat_atl AL191970 35.6000 -41.3000 SS 55 -2 6 162
1970294N34312 1970 139 NA NA NOT_NAMED 1970-10-24 21:00:00 SS 35.2925 -41.1575 main 1605 1605 P_____________ AL191970 35.2925 -41.1575 SS 57 -2 6 158
1970294N34312 1970 139 NA NA NOT_NAMED 1970-10-25 00:00:00 TS 35.0000 -41.0000 60 hurdat_atl main 1643 1643 O_____________ hurdat_atl AL191970 35.0000 -41.0000 TS 60 0 6 156
1970294N34312 1970 139 NA NA NOT_NAMED 1970-10-25 03:00:00 TS 34.7424 -40.8653 main 1676 1676 P_____________ AL191970 34.7424 -40.8653 TS 62 0 6 154
1970294N34312 1970 139 NA NA NOT_NAMED 1970-10-25 06:00:00 TS 34.5000 -40.7000 65 hurdat_atl main 1704 1704 O_____________ hurdat_atl AL191970 34.5000 -40.7000 HU 65 1 6 150
1970294N34312 1970 139 NA NA NOT_NAMED 1970-10-25 09:00:00 TS 34.2049 -40.4871 main 1742 1742 P_____________ AL191970 34.2049 -40.4871 HU 67 1 6 140
1970294N34312 1970 139 NA NA NOT_NAMED 1970-10-25 12:00:00 TS 34.0000 -40.2000 70 hurdat_atl main 1776 1776 O_____________ hurdat_atl AL191970 34.0000 -40.2000 HU 70 1 6 114
1970294N34312 1970 139 NA NA NOT_NAMED 1970-10-25 15:00:00 TS 33.9600 -39.8297 main 1797 1797 P_____________ AL191970 33.9600 -39.8297 HU 72 1 7 81
1970294N34312 1970 139 NA NA NOT_NAMED 1970-10-25 18:00:00 TS 34.1000 -39.4000 75 hurdat_atl main 1809 1802 O_____________ hurdat_atl AL191970 34.1000 -39.4000 HU 75 1 8 58
1970294N34312 1970 139 NA NA NOT_NAMED 1970-10-25 21:00:00 TS 34.4049 -38.9579 main 1804 1791 P_____________ AL191970 34.4049 -38.9579 HU 77 1 10 47
1970294N34312 1970 139 NA NA NOT_NAMED 1970-10-26 00:00:00 TS 34.8000 -38.5000 80 hurdat_atl main 1796 1788 O_____________ hurdat_atl AL191970 34.8000 -38.5000 HU 80 1 11 45
1970294N34312 1970 139 NA NA NOT_NAMED 1970-10-26 03:00:00 TS 35.1651 -38.0276 main 1791 1786 P_____________ AL191970 35.1651 -38.0276 HU 82 1 10 46
1970294N34312 1970 139 NA NA NOT_NAMED 1970-10-26 06:00:00 TS 35.5000 -37.6000 85 hurdat_atl main 1789 1783 O_____________ hurdat_atl AL191970 35.5000 -37.6000 HU 85 2 9 46
1970294N34312 1970 139 NA NA NOT_NAMED 1970-10-26 09:00:00 TS 35.7648 -37.2695 main 1783 1781 P_____________ AL191970 35.7648 -37.2695 HU 85 2 7 44
1970294N34312 1970 139 NA NA NOT_NAMED 1970-10-26 12:00:00 TS 36.0000 -37.0000 85 hurdat_atl main 1785 1781 O_____________ hurdat_atl AL191970 36.0000 -37.0000 HU 85 2 6 41
1970294N34312 1970 139 NA NA NOT_NAMED 1970-10-26 15:00:00 TS 36.2498 -36.7497 main 1788 1776 P_____________ AL191970 36.2498 -36.7497 HU 85 2 6 39
1970294N34312 1970 139 NA NA NOT_NAMED 1970-10-26 18:00:00 TS 36.5000 -36.5000 85 hurdat_atl main 1776 1773 O_____________ hurdat_atl AL191970 36.5000 -36.5000 HU 85 2 6 41
1970294N34312 1970 139 NA NA NOT_NAMED 1970-10-26 21:00:00 TS 36.7349 -36.2220 main 1779 1769 P_____________ AL191970 36.7349 -36.2220 HU 85 2 7 44
1970294N34312 1970 139 NA NA NOT_NAMED 1970-10-27 00:00:00 TS 37.0000 -35.9000 85 hurdat_atl main 1776 1772 O_____________ hurdat_atl AL191970 37.0000 -35.9000 HU 85 2 8 43
1970294N34312 1970 139 NA NA NOT_NAMED 1970-10-27 03:00:00 TS 37.3122 -35.5441 main 1779 1769 P_____________ AL191970 37.3122 -35.5441 HU 82 1 9 42
1970294N34312 1970 139 NA NA NOT_NAMED 1970-10-27 06:00:00 TS 37.7000 -35.1000 80 hurdat_atl main 1776 1775 O_____________ hurdat_atl AL191970 37.7000 -35.1000 HU 80 1 12 43
1970294N34312 1970 139 NA NA NOT_NAMED 1970-10-27 09:00:00 TS 38.1624 -34.5444 main 1781 1781 P_____________ AL191970 38.1624 -34.5444 HU 77 1 14 43
1970294N34312 1970 139 NA NA NOT_NAMED 1970-10-27 12:00:00 TS 38.7000 -33.9000 75 hurdat_atl main 1789 1789 O_____________ hurdat_atl AL191970 38.7000 -33.9000 HU 75 1 15 43
1970294N34312 1970 139 NA NA NOT_NAMED 1970-10-27 15:00:00 TS 39.2849 -33.2146 main 1800 1800 P_____________ AL191970 39.2849 -33.2146 HU 72 1 16 42
1970294N34312 1970 139 NA NA NOT_NAMED 1970-10-27 18:00:00 TS 39.9000 -32.5000 70 hurdat_atl main 1810 1810 O_____________ hurdat_atl AL191970 39.9000 -32.5000 HU 70 1 16 42
1970294N34312 1970 139 NA NA NOT_NAMED 1970-10-27 21:00:00 TS 40.4610 -31.8481 main 1823 1801 P_____________ AL191970 40.4610 -31.8481 HU 67 1 16 42
1970294N34312 1970 139 NA NA NOT_NAMED 1970-10-28 00:00:00 TS 41.1000 -31.1000 65 hurdat_atl main 1801 1719 O_____________ hurdat_atl AL191970 41.1000 -31.1000 HU 65 1 18 42
1970294N34312 1970 139 NA NA NOT_NAMED 1970-10-28 03:00:00 TS 41.8191 -30.2105 main 1710 1604 P_____________ AL191970 41.8191 -30.2105 HU 62 0 23 43
1970294N34312 1970 139 NA NA NOT_NAMED 1970-10-28 06:00:00 TS 42.8000 -29.0000 60 hurdat_atl main 1595 1455 O_____________ hurdat_atl AL191970 42.8000 -29.0000 TS 60 0 31 43
1970294N34312 1970 139 NA NA NOT_NAMED 1970-10-28 09:00:00 TS 44.1306 -27.3123 main 1447 1290 P_____________ AL191970 44.1306 -27.3123 TS 57 0 39 42
1970294N34312 1970 139 NA NA NOT_NAMED 1970-10-28 12:00:00 TS 45.7000 -25.3000 55 hurdat_atl main 1277 1050 O_____________ hurdat_atl AL191970 45.7000 -25.3000 TS 55 0 43 42
1970294N34312 1970 139 NA NA NOT_NAMED 1970-10-28 15:00:00 TS 47.3460 -23.1955 main 1043 820 P_____________ AL191970 47.3460 -23.1955 TS 52 0 44 41
1970294N34312 1970 139 NA NA NOT_NAMED 1970-10-28 18:00:00 TS 49.0000 -21.0000 50 hurdat_atl main 808 O_____________ hurdat_atl AL191970 49.0000 -21.0000 TS 50 0 44 41

About IBTrACS Database

This database is a web-friendly format of International Best Track Archive for Climate Stewardship (IBTrACS), a global best track data archive curated by NOAA dating back to 1842.

Updated: 2022-06-24